Time;durP1;ratioP1;P1;durP2;ratioP2;P2;SDS_P1;SDS_P2;PMS_P1;PMS_P2;Temp;Humidity;BMP_temperature;BMP_pressure;BME280_temperature;BME280_humidity;BME280_pressure;Samples;Min_cycle;Max_cycle;Signal;HPM_P1;HPM_P2
2023/08/19 00:01:43;;;;;;;18.37;16.57;;;;;;;21.00;100.00;101145.06;5050121;28;20482;-83
2023/08/19 00:04:13;;;;;;;16.53;15.13;;;;;;;21.05;100.00;101144.28;5055771;28;20468;-83
2023/08/19 00:06:44;;;;;;;20.93;19.00;;;;;;;21.03;100.00;101143.69;5058599;28;20390;-82
2023/08/19 00:09:14;;;;;;;28.30;22.43;;;;;;;20.95;100.00;101146.97;5054386;28;20413;-82
2023/08/19 00:11:46;;;;;;;20.40;18.23;;;;;;;20.99;100.00;101146.16;5052579;28;20459;-83
2023/08/19 00:14:15;;;;;;;20.13;18.00;;;;;;;21.05;100.00;101147.84;5054599;23;20485;-81
2023/08/19 00:16:44;;;;;;;18.43;16.70;;;;;;;20.99;100.00;101148.06;5034373;28;21096;-83
2023/08/19 00:19:14;;;;;;;17.07;15.53;;;;;;;21.02;100.00;101145.63;5039666;28;20399;-81
2023/08/19 00:21:44;;;;;;;22.27;16.47;;;;;;;21.03;100.00;101147.28;5042970;28;20436;-83
2023/08/19 00:24:13;;;;;;;19.03;17.33;;;;;;;20.93;100.00;101138.97;5032628;28;20449;-82
2023/08/19 00:26:42;;;;;;;18.03;16.63;;;;;;;20.87;100.00;101145.50;5020479;28;20454;-82
2023/08/19 00:29:13;;;;;;;17.23;15.83;;;;;;;20.82;100.00;101142.72;5021972;28;20957;-83
2023/08/19 00:31:42;;;;;;;16.73;15.20;;;;;;;20.75;100.00;101139.38;5020275;28;20412;-82
2023/08/19 00:34:11;;;;;;;17.70;15.73;;;;;;;20.75;100.00;101142.13;5015848;28;20457;-81
2023/08/19 00:36:40;;;;;;;17.50;15.70;;;;;;;20.72;100.00;101139.91;5016332;28;20407;-79
2023/08/19 00:39:10;;;;;;;17.77;16.07;;;;;;;20.71;100.00;101143.75;5035548;28;20407;-80
2023/08/19 00:41:39;;;;;;;18.50;16.87;;;;;;;20.73;100.00;101138.81;5028510;28;20425;-82
2023/08/19 00:44:08;;;;;;;19.03;17.00;;;;;;;20.73;100.00;101139.63;5023104;28;20510;-83
2023/08/19 00:46:39;;;;;;;18.87;16.93;;;;;;;20.75;100.00;101136.63;5021748;28;20427;-83
2023/08/19 00:49:08;;;;;;;16.20;14.87;;;;;;;20.76;100.00;101138.28;5015799;28;20458;-80
2023/08/19 00:51:38;;;;;;;17.17;15.77;;;;;;;20.72;100.00;101139.91;5016361;28;20517;-80
2023/08/19 00:54:07;;;;;;;19.67;15.07;;;;;;;20.70;100.00;101139.34;5011592;28;20450;-80
2023/08/19 00:56:37;;;;;;;17.20;15.77;;;;;;;20.69;100.00;101141.25;5026629;28;20471;-83
2023/08/19 00:59:07;;;;;;;17.30;15.70;;;;;;;20.63;100.00;101138.72;5023647;28;20434;-80
2023/08/19 01:01:37;;;;;;;16.53;15.20;;;;;;;20.58;100.00;101139.50;5023989;28;20446;-82
2023/08/19 01:04:07;;;;;;;17.43;15.97;;;;;;;20.50;100.00;101133.66;5030540;28;20503;-82
2023/08/19 01:06:46;;;;;;;17.33;15.80;;;;;;;20.50;100.00;101133.66;5025750;28;20442;-80
2023/08/19 01:09:26;;;;;;;18.73;16.90;;;;;;;20.55;100.00;101136.47;5026140;28;20459;-80
2023/08/19 01:12:03;;;;;;;17.67;15.97;;;;;;;20.42;100.00;101137.75;5026271;28;20412;-84
2023/08/19 01:14:41;;;;;;;17.40;15.73;;;;;;;20.40;100.00;101131.66;5024551;28;20443;-83
2023/08/19 01:17:15;;;;;;;18.80;16.80;;;;;;;20.49;100.00;101137.50;5020948;28;20748;-82
2023/08/19 01:19:48;;;;;;;17.57;15.97;;;;;;;20.50;100.00;101128.19;5019596;28;20444;-83
2023/08/19 01:22:26;;;;;;;16.63;15.03;;;;;;;20.55;100.00;101125.47;5019081;28;20410;-83
2023/08/19 01:24:57;;;;;;;18.43;16.73;;;;;;;20.42;100.00;101117.66;5019404;28;20444;-82
2023/08/19 01:27:29;;;;;;;17.40;15.90;;;;;;;20.38;100.00;101120.94;5037633;28;20467;-84
2023/08/19 01:30:00;;;;;;;18.13;16.43;;;;;;;20.30;100.00;101124.16;5019007;28;20458;-82
2023/08/19 01:32:30;;;;;;;20.13;18.33;;;;;;;20.32;100.00;101122.00;5020561;28;20428;-82
2023/08/19 01:35:01;;;;;;;19.73;16.53;;;;;;;20.33;100.00;101115.38;5023819;28;20400;-84
2023/08/19 01:37:38;;;;;;;19.93;18.03;;;;;;;20.21;100.00;101120.19;5022010;28;20433;-83
2023/08/19 01:40:13;;;;;;;24.10;15.40;;;;;;;20.20;100.00;101118.53;5020986;28;20571;-82
2023/08/19 01:42:44;;;;;;;17.20;15.80;;;;;;;20.15;100.00;101110.25;5015921;28;20518;-80
2023/08/19 01:45:13;;;;;;;18.87;17.17;;;;;;;20.13;100.00;101114.34;5019148;28;20406;-82
2023/08/19 01:47:43;;;;;;;17.07;15.57;;;;;;;20.23;100.00;101112.53;5015722;28;20432;-82
2023/08/19 01:50:13;;;;;;;19.70;17.83;;;;;;;20.19;100.00;101111.38;5016575;28;20433;-82
2023/08/19 01:52:42;;;;;;;17.67;16.00;;;;;;;20.16;100.00;101111.91;5027945;28;20431;-79
2023/08/19 01:55:13;;;;;;;18.37;16.87;;;;;;;20.10;100.00;101118.44;5027676;28;20451;-81
2023/08/19 01:57:42;;;;;;;17.03;15.53;;;;;;;20.12;100.00;101108.03;5026776;28;20440;-81
2023/08/19 02:00:12;;;;;;;18.53;16.67;;;;;;;20.20;100.00;101109.47;5025150;28;20500;-81
2023/08/19 02:02:44;;;;;;;16.83;15.33;;;;;;;20.09;100.00;101111.28;5024897;28;20422;-82
2023/08/19 02:05:14;;;;;;;18.03;16.43;;;;;;;20.07;100.00;101109.88;5018581;28;20408;-81
2023/08/19 02:07:44;;;;;;;18.73;17.07;;;;;;;20.00;100.00;101107.34;5020513;28;20421;-81
2023/08/19 02:10:14;;;;;;;19.03;17.10;;;;;;;19.97;100.00;101107.88;5022951;28;20480;-82
2023/08/19 02:12:44;;;;;;;20.07;18.27;;;;;;;19.90;100.00;101102.56;5018152;28;20933;-83
2023/08/19 02:15:14;;;;;;;16.73;15.30;;;;;;;19.87;100.00;101103.09;5016012;28;20511;-81
2023/08/19 02:17:43;;;;;;;18.57;16.83;;;;;;;19.82;100.00;101110.44;5030163;28;20431;-82
2023/08/19 02:20:13;;;;;;;18.20;16.63;;;;;;;19.73;100.00;101110.09;5026647;28;20418;-81
2023/08/19 02:22:43;;;;;;;19.27;17.27;;;;;;;19.67;100.00;101113.84;5034866;28;20430;-78
2023/08/19 02:25:13;;;;;;;18.83;17.17;;;;;;;19.68;100.00;101109.19;5033444;28;20446;-80
2023/08/19 02:27:44;;;;;;;18.57;17.00;;;;;;;19.74;100.00;101113.66;5036452;28;20415;-80
2023/08/19 02:30:14;;;;;;;19.90;17.80;;;;;;;19.72;100.00;101110.34;5024126;28;20408;-81
2023/08/19 02:32:44;;;;;;;19.00;17.30;;;;;;;19.68;100.00;101111.94;5021768;28;20445;-81
2023/08/19 02:35:14;;;;;;;18.63;17.00;;;;;;;19.77;100.00;101121.38;5026972;28;20440;-82
2023/08/19 02:37:43;;;;;;;18.53;16.83;;;;;;;19.75;100.00;101116.13;5025742;28;20456;-82
2023/08/19 02:40:14;;;;;;;18.30;16.67;;;;;;;19.67;100.00;101124.84;5025963;28;20812;-83
2023/08/19 02:42:44;;;;;;;19.13;17.43;;;;;;;19.68;100.00;101120.19;5027937;28;20458;-82
2023/08/19 02:45:13;;;;;;;18.83;17.07;;;;;;;19.62;100.00;101115.69;5021625;28;20410;-83
2023/08/19 02:47:42;;;;;;;20.40;18.40;;;;;;;19.67;100.00;101122.09;5031692;28;20417;-83
2023/08/19 02:50:13;;;;;;;20.27;18.33;;;;;;;19.56;100.00;101116.75;5026657;28;20449;-82
2023/08/19 02:52:42;;;;;;;19.27;17.67;;;;;;;19.61;100.00;101114.88;5026186;28;20474;-82
2023/08/19 02:55:12;;;;;;;18.07;16.27;;;;;;;19.62;100.00;101113.78;5026709;28;20418;-82
2023/08/19 02:57:42;;;;;;;19.37;17.70;;;;;;;19.60;100.00;101115.97;5016397;28;20425;-82
2023/08/19 03:00:14;;;;;;;20.90;19.03;;;;;;;19.56;100.00;101116.75;5022038;28;20511;-81
2023/08/19 03:02:46;;;;;;;21.20;19.23;;;;;;;19.47;100.00;101119.94;5024715;28;20497;-83
2023/08/19 03:05:16;;;;;;;20.83;18.93;;;;;;;19.41;100.00;101123.66;5026305;28;20407;-82
2023/08/19 03:07:46;;;;;;;20.67;18.83;;;;;;;19.38;100.00;101126.09;5029499;28;20411;-83
2023/08/19 03:10:15;;;;;;;20.47;18.73;;;;;;;19.37;100.00;101124.41;5021811;28;20950;-81
2023/08/19 03:12:46;;;;;;;20.20;17.90;;;;;;;19.41;100.00;101126.41;5021578;28;20510;-81
2023/08/19 03:15:15;;;;;;;22.30;18.37;;;;;;;19.39;100.00;101122.25;5024940;28;20404;-82
2023/08/19 03:17:45;;;;;;;19.43;17.60;;;;;;;19.32;100.00;101118.84;5025425;28;20442;-83
2023/08/19 03:20:14;;;;;;;20.90;18.90;;;;;;;19.25;100.00;101127.28;5020185;28;20416;-83
2023/08/19 03:22:43;;;;;;;21.90;19.80;;;;;;;19.24;100.00;101133.03;5016739;28;20458;-79
2023/08/19 03:25:12;;;;;;;22.07;20.17;;;;;;;19.25;100.00;101127.28;5019841;28;20559;-80
2023/08/19 03:27:42;;;;;;;18.87;17.07;;;;;;;19.30;100.00;101130.13;5026898;28;20528;-81
2023/08/19 03:30:13;;;;;;;20.77;18.73;;;;;;;19.26;100.00;101133.63;5015244;28;20939;-81
2023/08/19 03:32:42;;;;;;;20.40;18.37;;;;;;;19.23;100.00;101140.44;5010702;28;20967;-82
2023/08/19 03:35:12;;;;;;;20.87;18.90;;;;;;;19.23;100.00;101134.94;5017208;28;20425;-81
2023/08/19 03:37:41;;;;;;;19.23;17.53;;;;;;;19.29;100.00;101133.09;5017518;28;20444;-80
2023/08/19 03:40:11;;;;;;;20.77;18.77;;;;;;;19.29;100.00;101130.34;5016009;28;20455;-80
2023/08/19 03:42:40;;;;;;;20.33;18.23;;;;;;;19.32;100.00;101127.94;5021207;28;20458;-83
2023/08/19 03:45:10;;;;;;;21.90;19.67;;;;;;;19.35;100.00;101126.59;5020055;28;20445;-80
2023/08/19 03:47:41;;;;;;;21.10;19.03;;;;;;;19.34;100.00;101127.69;5036734;28;20423;-80
2023/08/19 03:50:10;;;;;;;20.50;18.70;;;;;;;19.33;100.00;101129.59;5028136;28;20411;-80
2023/08/19 03:52:39;;;;;;;20.77;18.80;;;;;;;19.44;100.00;101136.91;5034967;28;20443;-82
2023/08/19 03:55:10;;;;;;;23.10;18.70;;;;;;;19.40;100.00;101135.75;5024692;28;20469;-82
2023/08/19 03:57:39;;;;;;;22.70;20.50;;;;;;;19.47;100.00;101136.41;5022833;28;20489;-82
2023/08/19 04:00:13;;;;;;;22.07;20.10;;;;;;;19.50;100.00;101146.88;5034089;28;20412;-81
2023/08/19 04:02:44;;;;;;;20.67;18.77;;;;;;;19.48;100.00;101145.47;5035551;28;20591;-79
2023/08/19 04:05:13;;;;;;;20.67;18.57;;;;;;;19.52;100.00;101150.19;5043707;28;20410;-79
2023/08/19 04:07:42;;;;;;;23.47;21.23;;;;;;;19.51;100.00;101143.03;5040075;28;20429;-78
2023/08/19 04:10:12;;;;;;;20.40;18.67;;;;;;;19.60;100.00;101150.84;5036637;28;20894;-80
2023/08/19 04:12:41;;;;;;;23.80;20.70;;;;;;;19.63;100.00;101148.41;5032857;28;20427;-80
2023/08/19 04:15:11;;;;;;;21.63;19.53;;;;;;;19.74;100.00;101152.09;5033349;28;20622;-81
2023/08/19 04:17:40;;;;;;;21.63;19.57;;;;;;;19.77;100.00;101141.44;5038501;28;20744;-81
2023/08/19 04:20:13;;;;;;;22.60;20.50;;;;;;;19.79;100.00;101149.41;5038461;28;20430;-80
2023/08/19 04:22:42;;;;;;;21.40;19.30;;;;;;;20.16;100.00;101150.38;5040838;28;20706;-80
2023/08/19 04:25:13;;;;;;;20.10;18.30;;;;;;;20.50;100.00;101144.66;5045559;28;20513;-80
2023/08/19 04:27:42;;;;;;;19.83;17.93;;;;;;;20.82;100.00;101142.72;5041630;28;20432;-81
2023/08/19 04:30:12;;;;;;;21.23;18.40;;;;;;;21.11;100.00;101146.78;5037435;28;20427;-79
2023/08/19 04:32:41;;;;;;;21.50;19.50;;;;;;;21.55;100.00;101152.00;5038152;28;20488;-80
2023/08/19 04:35:13;;;;;;;21.50;19.47;;;;;;;22.04;98.92;101166.25;5037387;28;20398;-81
2023/08/19 04:37:43;;;;;;;20.40;18.50;;;;;;;22.61;94.67;101159.72;5039485;28;20429;-80
2023/08/19 04:40:13;;;;;;;18.70;17.17;;;;;;;23.18;90.18;101164.94;5035265;28;20491;-79
2023/08/19 04:42:44;;;;;;;19.70;17.90;;;;;;;23.57;86.26;101167.91;5037334;28;20451;-79
2023/08/19 04:45:14;;;;;;;21.70;17.67;;;;;;;24.01;83.43;101176.28;5041104;28;20422;-80
2023/08/19 04:47:49;;;;;;;20.97;18.90;;;;;;;24.18;81.73;101180.34;5037857;28;20480;-79
2023/08/19 04:50:21;;;;;;;18.53;16.77;;;;;;;24.01;81.75;101166.00;5030084;28;20423;-79
2023/08/19 04:52:51;;;;;;;19.00;17.30;;;;;;;24.07;82.17;101172.34;5022754;28;20429;-83
2023/08/19 04:55:20;;;;;;;19.00;17.10;;;;;;;24.15;81.88;101169.00;5029752;28;20433;-78
2023/08/19 04:57:49;;;;;;;21.97;17.43;;;;;;;24.23;80.84;101171.19;5030542;28;20426;-79
2023/08/19 05:00:19;;;;;;;19.80;17.77;;;;;;;24.41;80.50;101177.97;5033080;28;20446;-81
2023/08/19 05:02:49;;;;;;;18.30;16.53;;;;;;;24.84;77.54;101173.47;5031193;28;20494;-84
2023/08/19 05:05:21;;;;;;;19.43;17.57;;;;;;;25.04;76.07;101171.38;5030715;28;20675;-83
2023/08/19 05:07:51;;;;;;;19.57;17.83;;;;;;;25.21;75.33;101170.94;5032088;28;20506;-82
2023/08/19 05:10:21;;;;;;;19.37;17.67;;;;;;;24.96;76.49;101171.19;5031598;28;20520;-83
2023/08/19 05:12:50;;;;;;;21.63;19.60;;;;;;;24.91;77.00;101176.78;5034484;28;20463;-82
2023/08/19 05:15:21;;;;;;;19.90;18.20;;;;;;;24.39;79.46;101175.50;5022065;28;20449;-81
2023/08/19 05:17:50;;;;;;;20.47;18.67;;;;;;;23.99;82.28;101170.19;5026302;28;20433;-79
2023/08/19 05:20:21;;;;;;;22.07;19.90;;;;;;;24.10;82.04;101177.31;5032316;28;20441;-81
2023/08/19 05:22:50;;;;;;;20.60;18.80;;;;;;;23.63;84.67;101173.09;5033040;28;20473;-79
2023/08/19 05:25:19;;;;;;;25.03;22.60;;;;;;;23.18;88.43;101181.50;5032792;28;20432;-80
2023/08/19 05:27:49;;;;;;;22.70;20.60;;;;;;;22.93;90.83;101180.44;5030827;28;20511;-80
2023/08/19 05:30:18;;;;;;;25.00;22.70;;;;;;;22.72;92.87;101183.47;5029998;28;20454;-80
2023/08/19 05:32:47;;;;;;;23.30;21.40;;;;;;;22.68;94.23;101182.34;5021519;28;20468;-79
2023/08/19 05:35:16;;;;;;;24.20;22.07;;;;;;;22.78;93.68;101183.19;5020971;28;20512;-82
2023/08/19 05:37:47;;;;;;;25.57;23.33;;;;;;;22.88;93.05;101177.69;5016283;28;20435;-82
2023/08/19 05:40:16;;;;;;;23.73;21.63;;;;;;;23.05;92.70;101180.13;5023406;28;20429;-82
2023/08/19 05:42:45;;;;;;;23.30;21.10;;;;;;;23.05;92.46;101182.06;5020043;28;20472;-83
2023/08/19 05:45:15;;;;;;;23.13;21.20;;;;;;;23.01;93.17;101180.97;5024614;28;20472;-85
2023/08/19 05:47:44;;;;;;;25.73;23.50;;;;;;;23.05;92.55;101177.38;5022860;28;20889;-82
2023/08/19 05:50:14;;;;;;;26.13;23.87;;;;;;;23.10;92.51;101184.81;5031207;28;20513;-83
2023/08/19 05:52:43;;;;;;;26.17;23.97;;;;;;;23.00;92.65;101179.31;5032319;28;20447;-82
2023/08/19 05:55:17;;;;;;;25.90;23.70;;;;;;;22.98;93.14;101179.59;5021788;28;20540;-82
2023/08/19 05:57:46;;;;;;;24.53;22.33;;;;;;;22.94;93.83;101187.63;5024844;28;20459;-82
2023/08/19 06:00:16;;;;;;;24.33;22.33;;;;;;;22.88;94.11;101191.47;5023302;28;20789;-80
2023/08/19 06:02:48;;;;;;;24.07;21.90;;;;;;;22.89;94.44;101187.63;5033432;28;20469;-80
2023/08/19 06:05:17;;;;;;;28.00;25.63;;;;;;;22.93;94.54;101191.47;5031613;28;20441;-80
2023/08/19 06:07:47;;;;;;;29.20;26.50;;;;;;;22.94;94.44;101190.38;5025356;28;20531;-81
2023/08/19 06:10:18;;;;;;;25.10;23.00;;;;;;;22.93;94.69;101191.47;5023005;28;20437;-81
2023/08/19 06:12:55;;;;;;;23.13;21.30;;;;;;;23.05;93.90;101191.16;5029115;28;20467;-81
2023/08/19 06:15:24;;;;;;;23.83;21.73;;;;;;;23.10;93.58;101191.16;5025423;28;20814;-83
2023/08/19 06:17:54;;;;;;;28.43;25.70;;;;;;;23.05;93.79;101195.88;5028784;28;20429;-83
2023/08/19 06:20:23;;;;;;;26.47;24.10;;;;;;;22.99;94.53;101199.75;5030542;28;20421;-83
2023/08/19 06:22:53;;;;;;;26.43;23.83;;;;;;;22.86;95.64;101201.13;5037571;28;20472;-83
2023/08/19 06:25:23;;;;;;;25.90;23.73;;;;;;;22.72;96.92;101200.03;5053300;28;20462;-83
2023/08/19 06:27:53;;;;;;;24.53;22.43;;;;;;;22.77;96.76;101203.63;5042095;28;20932;-81
2023/08/19 06:30:22;;;;;;;27.23;24.73;;;;;;;22.76;97.01;101204.72;5044497;28;20411;-82
2023/08/19 06:32:52;;;;;;;26.10;23.80;;;;;;;22.75;96.99;101205.81;5038373;28;20480;-83
2023/08/19 06:35:22;;;;;;;28.97;26.43;;;;;;;22.68;97.79;101196.13;5048528;28;20428;-82
2023/08/19 06:37:56;;;;;;;27.00;24.60;;;;;;;22.63;97.94;101196.97;5047253;28;20464;-82
2023/08/19 06:40:31;;;;;;;27.63;25.20;;;;;;;22.65;98.35;101210.50;5045309;28;20449;-83
2023/08/19 06:43:02;;;;;;;26.93;24.37;;;;;;;22.71;98.15;101210.22;5046782;28;20477;-82
2023/08/19 06:45:32;;;;;;;26.83;24.57;;;;;;;22.66;98.04;101212.94;5044819;28;20498;-84
2023/08/19 06:48:06;;;;;;;39.13;35.43;;;;;;;22.60;98.92;101214.06;5059542;28;20435;-83
2023/08/19 06:50:36;;;;;;;35.67;32.43;;;;;;;22.57;99.27;101217.34;5059038;28;20431;-84
2023/08/19 06:53:09;;;;;;;29.93;27.23;;;;;;;22.68;98.92;101218.19;5059128;28;20527;-84
2023/08/19 06:55:46;;;;;;;27.50;25.17;;;;;;;23.08;96.39;101225.69;5045895;28;20415;-83
2023/08/19 06:58:24;;;;;;;28.97;26.17;;;;;;;23.40;93.97;101235.31;5047769;28;21071;-83
2023/08/19 07:01:00;;;;;;;26.63;24.43;;;;;;;23.61;91.94;101227.84;5039066;28;20432;-84
2023/08/19 07:03:33;;;;;;;25.20;23.10;;;;;;;23.75;91.14;101226.13;5042538;28;20483;-83
2023/08/19 07:06:05;;;;;;;26.50;24.00;;;;;;;23.97;88.96;101220.22;5043212;28;20995;-86
2023/08/19 07:08:40;;;;;;;29.60;27.00;;;;;;;24.14;88.43;101233.69;5043838;28;20444;-82
2023/08/19 07:11:14;;;;;;;26.33;23.87;;;;;;;24.32;87.68;101227.53;5071554;28;20432;-85
2023/08/19 07:13:45;;;;;;;27.23;24.83;;;;;;;24.46;85.96;101230.50;5052198;28;20477;-85
2023/08/19 07:16:19;;;;;;;24.23;22.37;;;;;;;24.68;85.00;101237.28;5054691;28;20444;-83
2023/08/19 07:18:55;;;;;;;24.50;22.40;;;;;;;24.84;83.48;101242.66;5042169;28;20444;-84
2023/08/19 07:21:25;;;;;;;22.93;20.90;;;;;;;24.99;83.07;101245.34;5036616;28;20451;-84
2023/08/19 07:23:58;;;;;;;28.97;26.00;;;;;;;25.15;81.79;101235.81;5036243;28;20862;-84
2023/08/19 07:26:29;;;;;;;24.60;22.63;;;;;;;25.09;82.32;101243.31;5029787;28;20395;-84
2023/08/19 07:28:59;;;;;;;24.17;22.03;;;;;;;25.22;81.90;101246.56;5041393;28;20442;-82
2023/08/19 07:31:30;;;;;;;26.83;24.30;;;;;;;25.33;80.19;101250.84;5043187;28;20440;-82
2023/08/19 07:33:59;;;;;;;24.70;22.50;;;;;;;25.48;79.12;101248.75;5041803;28;20877;-84
2023/08/19 07:36:32;;;;;;;25.87;23.67;;;;;;;25.58;78.32;101252.56;5037296;28;20464;-81
2023/08/19 07:39:03;;;;;;;24.93;22.63;;;;;;;25.50;79.36;101252.09;5041353;28;20871;-84
2023/08/19 07:41:34;;;;;;;25.27;23.23;;;;;;;25.45;80.04;101251.31;5033982;28;20434;-83
2023/08/19 07:44:04;;;;;;;26.27;23.87;;;;;;;25.78;77.30;101249.59;5037151;28;20475;-83
2023/08/19 07:46:33;;;;;;;26.03;23.80;;;;;;;25.88;77.10;101252.22;5040255;28;20536;-83
2023/08/19 07:49:03;;;;;;;26.00;24.00;;;;;;;26.03;76.29;101248.44;5041353;28;20935;-83
2023/08/19 07:51:32;;;;;;;24.07;21.37;;;;;;;26.11;77.12;101245.84;5042550;28;20464;-84
2023/08/19 07:54:09;;;;;;;23.03;21.10;;;;;;;26.24;76.21;101256.22;5043342;28;20463;-83
2023/08/19 07:56:41;;;;;;;24.00;21.97;;;;;;;26.71;73.41;101243.34;5044299;28;20423;-83
2023/08/19 07:59:11;;;;;;;24.10;21.97;;;;;;;26.98;73.13;101251.81;5041351;28;20438;-82
2023/08/19 08:01:40;;;;;;;24.50;22.40;;;;;;;26.88;71.50;101249.19;5040409;28;20433;-83
2023/08/19 08:04:09;;;;;;;24.37;22.30;;;;;;;26.92;71.42;101250.25;5037741;28;20491;-85
2023/08/19 08:06:40;;;;;;;23.30;20.93;;;;;;;26.75;72.70;101249.94;5040527;28;20453;-82
2023/08/19 08:09:10;;;;;;;22.33;20.53;;;;;;;26.82;71.90;101248.41;5049517;28;20430;-84
2023/08/19 08:11:42;;;;;;;23.47;21.50;;;;;;;26.91;71.62;101245.84;5051995;28;20452;-83
2023/08/19 08:14:12;;;;;;;23.47;21.50;;;;;;;27.08;70.60;101254.41;5038955;28;20469;-83
2023/08/19 08:16:42;;;;;;;24.13;22.00;;;;;;;27.36;69.33;101249.75;5039701;28;20455;-83
2023/08/19 08:19:11;;;;;;;23.53;21.43;;;;;;;27.59;68.44;101250.75;5039582;28;20453;-82
2023/08/19 08:21:40;;;;;;;24.00;22.03;;;;;;;27.68;67.45;101254.47;5035965;28;20420;-82
2023/08/19 08:24:10;;;;;;;22.07;20.27;;;;;;;27.58;67.22;101260.22;5040638;28;20478;-82
2023/08/19 08:26:41;;;;;;;23.70;21.80;;;;;;;27.59;68.00;101251.56;5039619;28;20471;-83
2023/08/19 08:29:11;;;;;;;21.90;20.00;;;;;;;27.87;66.33;101246.84;5040894;28;20445;-81
2023/08/19 08:31:40;;;;;;;21.73;20.07;;;;;;;27.91;65.94;101247.06;5034765;28;20443;-82
2023/08/19 08:34:10;;;;;;;20.07;18.47;;;;;;;27.90;66.60;101237.88;5039293;28;20456;-84
2023/08/19 08:36:39;;;;;;;23.97;20.70;;;;;;;28.10;63.96;101242.19;5040315;28;20448;-83
2023/08/19 08:39:09;;;;;;;19.63;17.93;;;;;;;28.05;64.85;101245.09;5039578;28;20439;-84
2023/08/19 08:41:42;;;;;;;19.77;18.17;;;;;;;28.06;65.49;101236.44;5042592;28;20431;-83
2023/08/19 08:44:12;;;;;;;21.73;19.47;;;;;;;28.22;64.26;101239.75;5034069;28;20493;-83
2023/08/19 08:46:43;;;;;;;20.63;19.03;;;;;;;28.32;63.68;101245.06;5040087;28;20466;-82
2023/08/19 08:49:13;;;;;;;19.00;17.53;;;;;;;28.40;64.28;101240.72;5039702;28;20446;-83
2023/08/19 08:51:44;;;;;;;19.73;18.13;;;;;;;28.48;63.18;101248.31;5036619;28;20519;-82
2023/08/19 08:54:16;;;;;;;18.43;17.03;;;;;;;28.55;62.74;101243.16;5035399;28;20456;-83
2023/08/19 08:56:47;;;;;;;20.77;19.10;;;;;;;28.68;61.72;101249.81;5035524;28;20473;-83
2023/08/19 08:59:17;;;;;;;17.40;16.10;;;;;;;28.58;60.43;101239.75;5034970;28;20526;-83
2023/08/19 09:01:48;;;;;;;17.80;16.40;;;;;;;28.78;61.76;101242.06;5034622;28;20869;-82
2023/08/19 09:04:18;;;;;;;17.60;16.10;;;;;;;28.70;61.00;101237.25;5034942;28;20479;-84
2023/08/19 09:06:58;;;;;;;19.30;17.70;;;;;;;28.86;60.03;101238.53;5039240;28;20440;-83
2023/08/19 09:09:35;;;;;;;18.37;16.67;;;;;;;29.03;59.11;101242.59;5035021;28;20436;-83
2023/08/19 09:12:11;;;;;;;18.40;15.90;;;;;;;29.09;57.56;101235.75;5039096;28;20424;-84
2023/08/19 09:14:46;;;;;;;16.50;15.07;;;;;;;29.13;57.80;101245.94;5047973;28;20486;-83
2023/08/19 09:17:16;;;;;;;17.83;16.00;;;;;;;28.94;57.84;101240.56;5033787;28;20428;-84
2023/08/19 09:19:46;;;;;;;15.83;14.50;;;;;;;29.09;57.18;101246.91;5039185;28;20431;-85
2023/08/19 09:22:23;;;;;;;17.30;15.80;;;;;;;29.59;56.55;101248.34;5038951;28;20432;-84
2023/08/19 09:24:53;;;;;;;16.77;15.47;;;;;;;29.52;56.55;101248.00;5036096;28;20551;-84
2023/08/19 09:27:28;;;;;;;16.90;15.50;;;;;;;29.49;56.16;101251.41;5037355;28;20537;-83
2023/08/19 09:29:59;;;;;;;16.83;15.10;;;;;;;29.78;55.52;101251.69;5040140;28;20439;-83
2023/08/19 09:32:30;;;;;;;16.70;15.20;;;;;;;29.69;54.66;101248.06;5038780;28;20482;-83
2023/08/19 09:35:06;;;;;;;17.03;15.57;;;;;;;29.78;55.23;101246.13;5042978;28;20943;-83
2023/08/19 09:37:37;;;;;;;15.57;14.33;;;;;;;29.80;54.61;101241.06;5041124;28;20981;-83
2023/08/19 09:40:10;;;;;;;16.93;15.23;;;;;;;29.95;55.14;101248.19;5042644;28;20447;-83
2023/08/19 09:42:47;;;;;;;15.70;14.30;;;;;;;30.07;53.93;101244.75;5039144;28;20532;-83
2023/08/19 09:45:19;;;;;;;14.90;13.70;;;;;;;29.89;53.55;101254.22;5041765;28;20488;-82
2023/08/19 09:47:50;;;;;;;14.70;13.60;;;;;;;29.96;53.36;101249.84;5042207;28;20452;-83
2023/08/19 09:50:21;;;;;;;14.40;13.30;;;;;;;29.99;52.82;101246.38;5039934;28;20447;-84
2023/08/19 09:52:56;;;;;;;14.97;13.87;;;;;;;30.27;52.62;101237.75;5038541;28;20795;-83
2023/08/19 09:55:27;;;;;;;15.37;14.17;;;;;;;30.34;51.72;101236.13;5047800;28;20448;-83
2023/08/19 09:57:59;;;;;;;15.40;14.20;;;;;;;30.49;51.85;101230.09;5050382;28;20447;-83
2023/08/19 10:00:28;;;;;;;15.80;14.20;;;;;;;30.14;52.98;101234.78;5042587;28;20534;-84
2023/08/19 10:02:58;;;;;;;14.80;13.60;;;;;;;30.25;52.78;101229.72;5035530;28;20433;-84
2023/08/19 10:05:32;;;;;;;14.63;13.37;;;;;;;30.08;52.45;101229.66;5037277;28;20495;-83
2023/08/19 10:08:04;;;;;;;15.73;14.23;;;;;;;30.12;53.31;101230.66;5040004;28;20451;-83
2023/08/19 10:10:46;;;;;;;15.07;13.77;;;;;;;30.19;51.07;101239.38;5049820;28;20474;-83
2023/08/19 10:13:17;;;;;;;13.73;12.43;;;;;;;30.59;50.66;101235.34;5053099;28;20463;-83
2023/08/19 10:15:48;;;;;;;14.47;13.27;;;;;;;30.96;49.78;101227.44;5055782;28;20432;-82
2023/08/19 10:18:21;;;;;;;13.23;11.90;;;;;;;31.16;49.30;101232.34;5043822;28;20435;-84
2023/08/19 10:20:55;;;;;;;13.37;12.30;;;;;;;31.04;48.93;101229.41;5043860;28;20491;-83
2023/08/19 10:23:26;;;;;;;12.13;11.13;;;;;;;30.98;48.81;101225.13;5042913;28;20444;-83
2023/08/19 10:25:56;;;;;;;13.40;10.50;;;;;;;31.03;48.45;101230.59;5040922;28;20479;-84
2023/08/19 10:28:28;;;;;;;12.03;11.07;;;;;;;31.27;47.90;101239.25;5036661;28;20456;-83
2023/08/19 10:31:08;;;;;;;12.13;10.93;;;;;;;31.36;46.89;101242.84;5041805;28;20516;-83
2023/08/19 10:33:44;;;;;;;12.23;11.27;;;;;;;31.50;47.48;101243.44;5040993;28;20468;-83
2023/08/19 10:36:17;;;;;;;14.03;12.83;;;;;;;31.52;48.36;101239.50;5034327;28;20477;-83
2023/08/19 10:38:47;;;;;;;14.47;13.13;;;;;;;31.52;47.38;101243.09;5039864;28;20440;-83
2023/08/19 10:41:19;;;;;;;18.87;14.50;;;;;;;31.22;47.58;101241.38;5040439;28;20440;-83
2023/08/19 10:43:56;;;;;;;18.43;16.57;;;;;;;31.45;46.71;101238.03;5040731;28;20467;-83
2023/08/19 10:46:34;;;;;;;14.60;13.20;;;;;;;31.13;48.22;101244.19;5050463;28;20464;-83
2023/08/19 10:49:04;;;;;;;27.70;25.30;;;;;;;31.16;48.73;101237.94;5042642;28;20431;-83
2023/08/19 10:51:48;;;;;;;14.53;13.50;;;;;;;31.48;47.57;101242.94;5041722;28;20443;-83
2023/08/19 10:54:27;;;;;;;18.00;15.63;;;;;;;31.46;48.01;101241.66;5043258;28;20482;-82
2023/08/19 10:57:13;;;;;;;14.00;13.00;;;;;;;31.51;47.66;101230.28;5045136;28;20431;-81
2023/08/19 10:59:45;;;;;;;15.30;14.00;;;;;;;31.56;47.58;101218.09;5038329;28;20431;-83
2023/08/19 11:02:15;;;;;;;18.97;14.63;;;;;;;31.62;47.08;101233.53;5045555;28;20496;-83
2023/08/19 11:04:47;;;;;;;14.10;12.60;;;;;;;31.59;46.91;101235.03;5059037;28;20470;-84
2023/08/19 11:07:16;;;;;;;14.07;13.03;;;;;;;31.36;46.97;101228.84;5054692;28;20439;-84
2023/08/19 11:09:47;;;;;;;14.37;13.10;;;;;;;31.43;47.73;101225.53;5050841;28;20491;-83
2023/08/19 11:12:19;;;;;;;14.23;13.13;;;;;;;31.62;47.74;101223.16;5054806;28;20455;-82
2023/08/19 11:14:50;;;;;;;14.40;13.23;;;;;;;31.52;47.89;101215.94;5057326;28;20456;-83
2023/08/19 11:17:28;;;;;;;14.47;13.27;;;;;;;31.45;47.34;101215.66;5057971;28;20440;-83
2023/08/19 11:19:58;;;;;;;15.03;13.67;;;;;;;31.66;47.31;101217.75;5058630;28;20434;-83
2023/08/19 11:22:28;;;;;;;14.33;13.23;;;;;;;31.91;47.48;101219.56;5044029;28;20482;-83
2023/08/19 11:24:57;;;;;;;15.77;14.57;;;;;;;31.71;46.08;101217.56;5051202;28;20432;-84